sensor_id;sensor_type;location;lat;lon;timestamp;pressure;altitude;pressure_sealevel;temperature;humidity
40794;BME280;26502;51.886;15.604;2023-08-06T00:03:42;99918.58;;;16.30;75.60
40794;BME280;26502;51.886;15.604;2023-08-06T00:08:48;99911.95;;;16.35;75.57
40794;BME280;26502;51.886;15.604;2023-08-06T00:13:54;99905.55;;;16.34;75.50
40794;BME280;26502;51.886;15.604;2023-08-06T00:19:00;99902.39;;;16.36;75.67
40794;BME280;26502;51.886;15.604;2023-08-06T00:24:07;99894.71;;;16.33;75.63
40794;BME280;26502;51.886;15.604;2023-08-06T00:29:13;99890.19;;;16.28;75.70
40794;BME280;26502;51.886;15.604;2023-08-06T00:34:19;99888.83;;;16.24;75.66
40794;BME280;26502;51.886;15.604;2023-08-06T00:39:25;99878.57;;;16.15;75.82
40794;BME280;26502;51.886;15.604;2023-08-06T00:44:31;99866.00;;;16.10;75.99
40794;BME280;26502;51.886;15.604;2023-08-06T00:49:37;99852.05;;;16.09;76.10
40794;BME280;26502;51.886;15.604;2023-08-06T00:54:44;99844.56;;;16.12;76.09
40794;BME280;26502;51.886;15.604;2023-08-06T00:59:50;99842.77;;;16.04;75.93
40794;BME280;26502;51.886;15.604;2023-08-06T01:04:56;99827.27;;;15.98;76.08
40794;BME280;26502;51.886;15.604;2023-08-06T01:10:15;99818.42;;;15.96;76.15
40794;BME280;26502;51.886;15.604;2023-08-06T01:15:27;99807.38;;;15.90;76.20
40794;BME280;26502;51.886;15.604;2023-08-06T01:20:34;99795.52;;;15.83;76.23
40794;BME280;26502;51.886;15.604;2023-08-06T01:25:46;99785.34;;;15.76;76.53
40794;BME280;26502;51.886;15.604;2023-08-06T01:30:56;99770.73;;;15.78;76.53
40794;BME280;26502;51.886;15.604;2023-08-06T01:36:06;99758.51;;;15.76;76.49
40794;BME280;26502;51.886;15.604;2023-08-06T01:41:12;99747.45;;;15.70;76.54
40794;BME280;26502;51.886;15.604;2023-08-06T01:46:18;99749.65;;;15.67;76.66
40794;BME280;26502;51.886;15.604;2023-08-06T01:51:24;99756.45;;;15.67;76.83
40794;BME280;26502;51.886;15.604;2023-08-06T01:56:30;99746.91;;;15.65;76.88
40794;BME280;26502;51.886;15.604;2023-08-06T02:01:37;99733.30;;;15.68;76.91
40794;BME280;26502;51.886;15.604;2023-08-06T02:06:43;99716.84;;;15.73;76.81
40794;BME280;26502;51.886;15.604;2023-08-06T02:11:49;99713.80;;;15.70;76.79
40794;BME280;26502;51.886;15.604;2023-08-06T02:16:55;99724.13;;;15.66;77.06
40794;BME280;26502;51.886;15.604;2023-08-06T02:22:05;99739.17;;;15.58;77.02
40794;BME280;26502;51.886;15.604;2023-08-06T02:27:11;99747.63;;;15.52;76.94
40794;BME280;26502;51.886;15.604;2023-08-06T02:32:17;99735.30;;;15.52;77.16
40794;BME280;26502;51.886;15.604;2023-08-06T02:37:23;99725.54;;;15.56;77.19
40794;BME280;26502;51.886;15.604;2023-08-06T02:42:30;99716.98;;;15.53;77.33
40794;BME280;26502;51.886;15.604;2023-08-06T02:47:36;99701.50;;;15.49;77.39
40794;BME280;26502;51.886;15.604;2023-08-06T02:52:43;99683.47;;;15.40;77.15
40794;BME280;26502;51.886;15.604;2023-08-06T02:57:49;99677.55;;;15.38;77.41
40794;BME280;26502;51.886;15.604;2023-08-06T03:02:56;99673.89;;;15.34;77.63
40794;BME280;26502;51.886;15.604;2023-08-06T03:08:10;99673.10;;;15.30;77.77
40794;BME280;26502;51.886;15.604;2023-08-06T03:13:16;99667.60;;;15.26;77.88
40794;BME280;26502;51.886;15.604;2023-08-06T03:18:23;99669.43;;;15.29;77.91
40794;BME280;26502;51.886;15.604;2023-08-06T03:23:30;99671.38;;;15.34;77.79
40794;BME280;26502;51.886;15.604;2023-08-06T03:28:37;99669.92;;;15.32;77.83
40794;BME280;26502;51.886;15.604;2023-08-06T03:33:44;99663.13;;;15.32;78.08
40794;BME280;26502;51.886;15.604;2023-08-06T03:38:53;99646.15;;;15.34;78.16
40794;BME280;26502;51.886;15.604;2023-08-06T03:43:59;99628.38;;;15.30;78.03
40794;BME280;26502;51.886;15.604;2023-08-06T03:49:07;99604.55;;;15.25;78.18
40794;BME280;26502;51.886;15.604;2023-08-06T03:54:13;99576.73;;;15.21;78.21
40794;BME280;26502;51.886;15.604;2023-08-06T03:59:19;99548.63;;;15.16;78.44
40794;BME280;26502;51.886;15.604;2023-08-06T04:04:25;99533.17;;;15.15;78.38
40794;BME280;26502;51.886;15.604;2023-08-06T04:09:32;99538.73;;;15.10;78.28
40794;BME280;26502;51.886;15.604;2023-08-06T04:14:38;99525.66;;;15.05;78.59
40794;BME280;26502;51.886;15.604;2023-08-06T04:19:43;99507.80;;;15.02;78.56
40794;BME280;26502;51.886;15.604;2023-08-06T04:24:49;99504.08;;;15.01;78.67
40794;BME280;26502;51.886;15.604;2023-08-06T04:29:56;99500.82;;;14.99;78.82
40794;BME280;26502;51.886;15.604;2023-08-06T04:35:04;99494.24;;;15.01;78.83
40794;BME280;26502;51.886;15.604;2023-08-06T04:40:12;99483.75;;;15.03;78.99
40794;BME280;26502;51.886;15.604;2023-08-06T04:45:18;99469.02;;;15.07;79.18
40794;BME280;26502;51.886;15.604;2023-08-06T04:50:24;99466.76;;;15.05;79.02
40794;BME280;26502;51.886;15.604;2023-08-06T04:55:30;99467.59;;;15.07;79.17
40794;BME280;26502;51.886;15.604;2023-08-06T05:00:37;99457.30;;;15.13;79.25
40794;BME280;26502;51.886;15.604;2023-08-06T05:05:43;99445.71;;;15.13;79.19
40794;BME280;26502;51.886;15.604;2023-08-06T05:10:50;99449.41;;;15.08;79.18
40794;BME280;26502;51.886;15.604;2023-08-06T05:15:56;99456.23;;;15.05;79.36
40794;BME280;26502;51.886;15.604;2023-08-06T05:21:02;99462.60;;;14.99;79.32
40794;BME280;26502;51.886;15.604;2023-08-06T05:26:08;99468.51;;;14.99;79.38
40794;BME280;26502;51.886;15.604;2023-08-06T05:31:14;99481.15;;;15.05;79.54
40794;BME280;26502;51.886;15.604;2023-08-06T05:36:20;99491.64;;;15.05;79.54
40794;BME280;26502;51.886;15.604;2023-08-06T05:41:26;99494.45;;;15.09;79.64
40794;BME280;26502;51.886;15.604;2023-08-06T05:46:32;99494.91;;;15.12;79.50
40794;BME280;26502;51.886;15.604;2023-08-06T05:51:38;99485.98;;;15.12;79.60
40794;BME280;26502;51.886;15.604;2023-08-06T05:56:44;99481.83;;;15.13;79.59
40794;BME280;26502;51.886;15.604;2023-08-06T06:01:50;99479.52;;;15.15;79.61
40794;BME280;26502;51.886;15.604;2023-08-06T06:06:56;99473.46;;;15.12;79.88
40794;BME280;26502;51.886;15.604;2023-08-06T06:12:03;99467.36;;;15.15;79.74
40794;BME280;26502;51.886;15.604;2023-08-06T06:17:09;99454.33;;;15.15;79.74
40794;BME280;26502;51.886;15.604;2023-08-06T06:22:15;99455.08;;;15.17;79.77
40794;BME280;26502;51.886;15.604;2023-08-06T06:27:22;99446.76;;;15.16;79.94
40794;BME280;26502;51.886;15.604;2023-08-06T06:32:28;99437.39;;;15.24;80.09
40794;BME280;26502;51.886;15.604;2023-08-06T06:37:34;99430.43;;;15.29;79.87
40794;BME280;26502;51.886;15.604;2023-08-06T06:42:41;99419.59;;;15.28;80.00
40794;BME280;26502;51.886;15.604;2023-08-06T06:47:47;99410.25;;;15.18;80.04
40794;BME280;26502;51.886;15.604;2023-08-06T06:52:54;99405.20;;;15.09;80.25
40794;BME280;26502;51.886;15.604;2023-08-06T06:57:59;99410.39;;;15.17;80.55
40794;BME280;26502;51.886;15.604;2023-08-06T07:03:06;99408.65;;;15.19;80.43
40794;BME280;26502;51.886;15.604;2023-08-06T07:08:12;99416.66;;;15.27;80.64
40794;BME280;26502;51.886;15.604;2023-08-06T07:13:19;99411.92;;;15.25;80.53
40794;BME280;26502;51.886;15.604;2023-08-06T07:18:27;99408.70;;;15.23;80.64
40794;BME280;26502;51.886;15.604;2023-08-06T07:23:33;99399.91;;;15.21;80.65
40794;BME280;26502;51.886;15.604;2023-08-06T07:28:38;99392.30;;;15.19;80.81
40794;BME280;26502;51.886;15.604;2023-08-06T07:33:45;99382.97;;;15.17;80.90
40794;BME280;26502;51.886;15.604;2023-08-06T07:38:52;99377.10;;;15.19;80.93
40794;BME280;26502;51.886;15.604;2023-08-06T07:44:01;99362.16;;;15.21;80.82
40794;BME280;26502;51.886;15.604;2023-08-06T07:49:07;99355.34;;;15.19;81.03
40794;BME280;26502;51.886;15.604;2023-08-06T07:54:13;99340.86;;;15.18;81.28
40794;BME280;26502;51.886;15.604;2023-08-06T07:59:19;99340.59;;;15.17;81.22
40794;BME280;26502;51.886;15.604;2023-08-06T08:04:25;99346.66;;;15.20;81.29
40794;BME280;26502;51.886;15.604;2023-08-06T08:09:31;99345.73;;;15.23;81.41
40794;BME280;26502;51.886;15.604;2023-08-06T08:14:37;99353.14;;;15.22;81.57
40794;BME280;26502;51.886;15.604;2023-08-06T08:19:43;99354.74;;;15.27;81.66
40794;BME280;26502;51.886;15.604;2023-08-06T08:24:49;99350.58;;;15.35;81.61
40794;BME280;26502;51.886;15.604;2023-08-06T08:29:55;99344.80;;;15.31;81.46
40794;BME280;26502;51.886;15.604;2023-08-06T08:35:01;99335.65;;;15.31;81.47
40794;BME280;26502;51.886;15.604;2023-08-06T08:40:10;99327.80;;;15.29;81.53
40794;BME280;26502;51.886;15.604;2023-08-06T08:45:16;99316.95;;;15.28;81.73
40794;BME280;26502;51.886;15.604;2023-08-06T08:50:25;99313.85;;;15.26;81.98
40794;BME280;26502;51.886;15.604;2023-08-06T08:55:33;99308.73;;;15.25;81.92
40794;BME280;26502;51.886;15.604;2023-08-06T09:00:39;99299.20;;;15.23;82.09
40794;BME280;26502;51.886;15.604;2023-08-06T09:05:48;99292.70;;;15.29;82.11
40794;BME280;26502;51.886;15.604;2023-08-06T09:10:55;99282.92;;;15.33;82.29
40794;BME280;26502;51.886;15.604;2023-08-06T09:16:03;99278.31;;;15.38;82.23
40794;BME280;26502;51.886;15.604;2023-08-06T09:21:14;99268.46;;;15.42;82.26
40794;BME280;26502;51.886;15.604;2023-08-06T09:26:21;99260.85;;;15.48;82.19
40794;BME280;26502;51.886;15.604;2023-08-06T09:31:33;99245.81;;;15.51;82.18
40794;BME280;26502;51.886;15.604;2023-08-06T09:36:47;99242.08;;;15.43;82.22
40794;BME280;26502;51.886;15.604;2023-08-06T09:41:57;99234.38;;;15.43;82.31
40794;BME280;26502;51.886;15.604;2023-08-06T09:47:05;99230.39;;;15.47;82.33
40794;BME280;26502;51.886;15.604;2023-08-06T09:52:13;99223.52;;;15.50;82.42
40794;BME280;26502;51.886;15.604;2023-08-06T09:57:18;99220.97;;;15.55;82.48
40794;BME280;26502;51.886;15.604;2023-08-06T10:02:26;99217.91;;;15.55;82.54
40794;BME280;26502;51.886;15.604;2023-08-06T10:07:32;99213.55;;;15.56;82.40
40794;BME280;26502;51.886;15.604;2023-08-06T10:12:43;99202.39;;;15.57;82.62
40794;BME280;26502;51.886;15.604;2023-08-06T10:17:54;99196.58;;;15.60;82.64
40794;BME280;26502;51.886;15.604;2023-08-06T10:23:05;99190.70;;;15.70;82.65
40794;BME280;26502;51.886;15.604;2023-08-06T10:28:13;99186.73;;;15.68;82.78
40794;BME280;26502;51.886;15.604;2023-08-06T10:33:20;99180.14;;;15.60;82.73
40794;BME280;26502;51.886;15.604;2023-08-06T10:38:27;99176.73;;;15.61;82.94
40794;BME280;26502;51.886;15.604;2023-08-06T10:43:37;99172.56;;;15.68;82.87
40794;BME280;26502;51.886;15.604;2023-08-06T10:48:46;99171.40;;;15.76;82.86
40794;BME280;26502;51.886;15.604;2023-08-06T10:53:52;99172.30;;;15.76;82.90
40794;BME280;26502;51.886;15.604;2023-08-06T10:58:59;99173.55;;;15.82;82.82
40794;BME280;26502;51.886;15.604;2023-08-06T11:04:06;99173.06;;;15.85;82.90
40794;BME280;26502;51.886;15.604;2023-08-06T11:09:14;99178.60;;;15.83;82.74
40794;BME280;26502;51.886;15.604;2023-08-06T11:14:22;99178.51;;;15.80;82.75
40794;BME280;26502;51.886;15.604;2023-08-06T11:19:28;99179.31;;;15.73;82.95
40794;BME280;26502;51.886;15.604;2023-08-06T11:24:34;99175.07;;;15.77;82.89
40794;BME280;26502;51.886;15.604;2023-08-06T11:29:40;99166.46;;;15.71;82.79
40794;BME280;26502;51.886;15.604;2023-08-06T11:34:46;99163.77;;;15.64;82.73
40794;BME280;26502;51.886;15.604;2023-08-06T11:39:53;99159.31;;;15.64;82.99
40794;BME280;26502;51.886;15.604;2023-08-06T11:45:01;99152.73;;;15.65;82.70
40794;BME280;26502;51.886;15.604;2023-08-06T11:50:10;99145.11;;;15.62;82.79
40794;BME280;26502;51.886;15.604;2023-08-06T11:55:25;99140.56;;;15.63;82.93
40794;BME280;26502;51.886;15.604;2023-08-06T12:00:33;99141.71;;;15.62;83.07
40794;BME280;26502;51.886;15.604;2023-08-06T12:05:39;99136.76;;;15.59;83.08
40794;BME280;26502;51.886;15.604;2023-08-06T12:10:45;99136.26;;;15.56;83.14
40794;BME280;26502;51.886;15.604;2023-08-06T12:15:53;99132.21;;;15.60;83.13
40794;BME280;26502;51.886;15.604;2023-08-06T12:21:02;99125.70;;;15.59;83.15
40794;BME280;26502;51.886;15.604;2023-08-06T12:26:08;99129.28;;;15.61;83.46
40794;BME280;26502;51.886;15.604;2023-08-06T12:31:13;99134.41;;;15.57;83.32
40794;BME280;26502;51.886;15.604;2023-08-06T12:36:20;99134.84;;;15.54;83.36
40794;BME280;26502;51.886;15.604;2023-08-06T12:41:26;99134.52;;;15.58;83.67
40794;BME280;26502;51.886;15.604;2023-08-06T12:46:33;99135.39;;;15.58;83.50
40794;BME280;26502;51.886;15.604;2023-08-06T12:51:39;99133.49;;;15.60;83.45
40794;BME280;26502;51.886;15.604;2023-08-06T12:56:45;99134.59;;;15.62;83.64
40794;BME280;26502;51.886;15.604;2023-08-06T13:01:52;99136.89;;;15.60;83.62
40794;BME280;26502;51.886;15.604;2023-08-06T13:06:58;99132.20;;;15.58;83.78
40794;BME280;26502;51.886;15.604;2023-08-06T13:12:04;99126.08;;;15.54;83.70
40794;BME280;26502;51.886;15.604;2023-08-06T13:17:10;99122.34;;;15.51;83.74
40794;BME280;26502;51.886;15.604;2023-08-06T13:22:16;99117.30;;;15.45;84.14
40794;BME280;26502;51.886;15.604;2023-08-06T13:27:23;99119.54;;;15.39;84.32
40794;BME280;26502;51.886;15.604;2023-08-06T13:32:30;99119.30;;;15.40;84.13
40794;BME280;26502;51.886;15.604;2023-08-06T13:37:38;99117.11;;;15.38;84.34
40794;BME280;26502;51.886;15.604;2023-08-06T13:42:44;99123.84;;;15.41;84.45
40794;BME280;26502;51.886;15.604;2023-08-06T13:47:50;99119.48;;;15.40;84.25
40794;BME280;26502;51.886;15.604;2023-08-06T13:52:56;99124.02;;;15.39;84.53
40794;BME280;26502;51.886;15.604;2023-08-06T13:58:02;99125.33;;;15.36;84.47
40794;BME280;26502;51.886;15.604;2023-08-06T14:03:09;99134.00;;;15.37;84.53
40794;BME280;26502;51.886;15.604;2023-08-06T14:08:16;99138.69;;;15.36;84.47
40794;BME280;26502;51.886;15.604;2023-08-06T14:13:23;99140.55;;;15.35;84.55
40794;BME280;26502;51.886;15.604;2023-08-06T14:18:29;99146.08;;;15.33;84.66
40794;BME280;26502;51.886;15.604;2023-08-06T14:23:34;99149.77;;;15.32;84.69
40794;BME280;26502;51.886;15.604;2023-08-06T14:28:40;99153.02;;;15.34;84.77
40794;BME280;26502;51.886;15.604;2023-08-06T14:33:46;99151.64;;;15.38;84.63
40794;BME280;26502;51.886;15.604;2023-08-06T14:38:53;99156.45;;;15.38;84.70
40794;BME280;26502;51.886;15.604;2023-08-06T14:44:00;99161.94;;;15.43;84.95
40794;BME280;26502;51.886;15.604;2023-08-06T14:49:06;99164.16;;;15.45;84.98
40794;BME280;26502;51.886;15.604;2023-08-06T14:54:12;99165.77;;;15.48;85.16
40794;BME280;26502;51.886;15.604;2023-08-06T14:59:18;99165.46;;;15.54;85.15
40794;BME280;26502;51.886;15.604;2023-08-06T15:04:24;99166.60;;;15.62;85.28
40794;BME280;26502;51.886;15.604;2023-08-06T15:09:30;99178.71;;;15.70;85.59
40794;BME280;26502;51.886;15.604;2023-08-06T15:14:36;99176.73;;;15.72;85.45
40794;BME280;26502;51.886;15.604;2023-08-06T15:19:42;99176.38;;;15.72;85.48
40794;BME280;26502;51.886;15.604;2023-08-06T15:24:48;99180.81;;;15.68;85.21
40794;BME280;26502;51.886;15.604;2023-08-06T15:29:54;99179.06;;;15.60;85.39
40794;BME280;26502;51.886;15.604;2023-08-06T15:35:01;99179.20;;;15.52;85.22
40794;BME280;26502;51.886;15.604;2023-08-06T15:40:12;99184.93;;;15.54;85.42
40794;BME280;26502;51.886;15.604;2023-08-06T15:45:20;99188.73;;;15.58;85.50
40794;BME280;26502;51.886;15.604;2023-08-06T15:50:26;99199.28;;;15.60;85.37
40794;BME280;26502;51.886;15.604;2023-08-06T15:55:33;99203.23;;;15.63;85.38
40794;BME280;26502;51.886;15.604;2023-08-06T16:00:42;99200.65;;;15.59;85.20
40794;BME280;26502;51.886;15.604;2023-08-06T16:05:48;99202.92;;;15.57;85.20
40794;BME280;26502;51.886;15.604;2023-08-06T16:10:54;99206.95;;;15.58;85.19
40794;BME280;26502;51.886;15.604;2023-08-06T16:16:00;99209.91;;;15.62;85.00
40794;BME280;26502;51.886;15.604;2023-08-06T16:21:05;99213.12;;;15.57;85.16
40794;BME280;26502;51.886;15.604;2023-08-06T16:26:11;99222.55;;;15.58;85.00
40794;BME280;26502;51.886;15.604;2023-08-06T16:31:17;99219.84;;;15.56;84.63
40794;BME280;26502;51.886;15.604;2023-08-06T16:36:24;99217.27;;;15.50;84.47
40794;BME280;26502;51.886;15.604;2023-08-06T16:41:30;99222.88;;;15.44;84.67
40794;BME280;26502;51.886;15.604;2023-08-06T16:46:37;99227.56;;;15.41;84.48
40794;BME280;26502;51.886;15.604;2023-08-06T16:51:43;99235.42;;;15.42;84.45
40794;BME280;26502;51.886;15.604;2023-08-06T16:56:49;99239.92;;;15.41;84.48
40794;BME280;26502;51.886;15.604;2023-08-06T17:01:55;99242.98;;;15.34;84.38
40794;BME280;26502;51.886;15.604;2023-08-06T17:07:01;99243.55;;;15.26;84.40
40794;BME280;26502;51.886;15.604;2023-08-06T17:12:09;99246.52;;;15.13;84.22
40794;BME280;26502;51.886;15.604;2023-08-06T17:17:15;99254.04;;;15.08;84.32
40794;BME280;26502;51.886;15.604;2023-08-06T17:22:23;99253.29;;;15.03;84.43
40794;BME280;26502;51.886;15.604;2023-08-06T17:27:29;99261.26;;;15.02;84.15
40794;BME280;26502;51.886;15.604;2023-08-06T17:32:35;99262.80;;;14.93;84.05
40794;BME280;26502;51.886;15.604;2023-08-06T17:37:44;99273.64;;;14.84;83.96
40794;BME280;26502;51.886;15.604;2023-08-06T17:42:50;99278.50;;;14.76;83.86
40794;BME280;26502;51.886;15.604;2023-08-06T17:47:56;99278.30;;;14.71;84.12
40794;BME280;26502;51.886;15.604;2023-08-06T17:53:00;99280.64;;;14.66;83.91
40794;BME280;26502;51.886;15.604;2023-08-06T17:58:06;99287.61;;;14.61;83.93
40794;BME280;26502;51.886;15.604;2023-08-06T18:03:12;99296.98;;;14.59;84.12
40794;BME280;26502;51.886;15.604;2023-08-06T18:08:21;99294.43;;;14.60;84.16
40794;BME280;26502;51.886;15.604;2023-08-06T18:13:26;99285.55;;;14.52;84.00
40794;BME280;26502;51.886;15.604;2023-08-06T18:18:33;99274.75;;;14.46;84.14
40794;BME280;26502;51.886;15.604;2023-08-06T18:23:39;99263.20;;;14.39;84.23
40794;BME280;26502;51.886;15.604;2023-08-06T18:28:45;99263.64;;;14.36;84.22
40794;BME280;26502;51.886;15.604;2023-08-06T18:33:51;99258.71;;;14.32;84.26
40794;BME280;26502;51.886;15.604;2023-08-06T18:38:57;99257.15;;;14.27;84.40
40794;BME280;26502;51.886;15.604;2023-08-06T18:44:03;99256.34;;;14.26;84.38
40794;BME280;26502;51.886;15.604;2023-08-06T18:49:09;99261.27;;;14.27;84.41
40794;BME280;26502;51.886;15.604;2023-08-06T18:54:14;99275.16;;;14.22;84.53
40794;BME280;26502;51.886;15.604;2023-08-06T18:59:22;99287.05;;;14.26;84.58
40794;BME280;26502;51.886;15.604;2023-08-06T19:04:28;99301.28;;;14.29;84.58
40794;BME280;26502;51.886;15.604;2023-08-06T19:09:34;99309.87;;;14.34;84.64
40794;BME280;26502;51.886;15.604;2023-08-06T19:14:41;99304.49;;;14.39;84.52
40794;BME280;26502;51.886;15.604;2023-08-06T19:19:47;99295.94;;;14.34;84.27
40794;BME280;26502;51.886;15.604;2023-08-06T19:24:54;99295.41;;;14.26;84.70
40794;BME280;26502;51.886;15.604;2023-08-06T19:30:00;99296.45;;;14.29;84.89
40794;BME280;26502;51.886;15.604;2023-08-06T19:35:07;99296.69;;;14.28;84.62
40794;BME280;26502;51.886;15.604;2023-08-06T19:40:13;99296.24;;;14.29;85.01
40794;BME280;26502;51.886;15.604;2023-08-06T19:45:21;99294.70;;;14.36;85.05
40794;BME280;26502;51.886;15.604;2023-08-06T19:50:26;99293.48;;;14.38;85.07
40794;BME280;26502;51.886;15.604;2023-08-06T19:55:36;99292.25;;;14.35;84.86
40794;BME280;26502;51.886;15.604;2023-08-06T20:00:42;99287.04;;;14.31;84.89
40794;BME280;26502;51.886;15.604;2023-08-06T20:05:48;99268.17;;;14.24;85.11
40794;BME280;26502;51.886;15.604;2023-08-06T20:10:54;99257.79;;;14.22;85.39
40794;BME280;26502;51.886;15.604;2023-08-06T20:16:01;99259.61;;;14.17;85.53
40794;BME280;26502;51.886;15.604;2023-08-06T20:21:07;99266.29;;;14.11;85.74
40794;BME280;26502;51.886;15.604;2023-08-06T20:26:14;99266.64;;;14.11;85.83
40794;BME280;26502;51.886;15.604;2023-08-06T20:31:19;99267.21;;;14.10;85.85
40794;BME280;26502;51.886;15.604;2023-08-06T20:36:25;99267.52;;;14.06;85.89
40794;BME280;26502;51.886;15.604;2023-08-06T20:41:31;99263.42;;;14.03;85.91
40794;BME280;26502;51.886;15.604;2023-08-06T20:46:37;99259.96;;;13.94;86.09
40794;BME280;26502;51.886;15.604;2023-08-06T20:51:43;99263.27;;;13.90;86.25
40794;BME280;26502;51.886;15.604;2023-08-06T20:56:49;99263.97;;;13.87;86.20
40794;BME280;26502;51.886;15.604;2023-08-06T21:01:55;99263.59;;;13.82;86.25
40794;BME280;26502;51.886;15.604;2023-08-06T21:07:01;99268.20;;;13.83;86.04
40794;BME280;26502;51.886;15.604;2023-08-06T21:12:08;99265.01;;;13.78;86.30
40794;BME280;26502;51.886;15.604;2023-08-06T21:17:14;99262.16;;;13.72;86.52
40794;BME280;26502;51.886;15.604;2023-08-06T21:22:20;99270.64;;;13.70;86.57
40794;BME280;26502;51.886;15.604;2023-08-06T21:27:26;99278.99;;;13.71;86.65
40794;BME280;26502;51.886;15.604;2023-08-06T21:32:32;99284.17;;;13.71;86.89
40794;BME280;26502;51.886;15.604;2023-08-06T21:37:38;99290.83;;;13.70;87.14
40794;BME280;26502;51.886;15.604;2023-08-06T21:42:45;99296.80;;;13.74;87.33
40794;BME280;26502;51.886;15.604;2023-08-06T21:47:51;99303.19;;;13.80;87.31
40794;BME280;26502;51.886;15.604;2023-08-06T21:52:58;99311.91;;;13.83;87.16
40794;BME280;26502;51.886;15.604;2023-08-06T21:58:03;99327.05;;;13.89;87.24
40794;BME280;26502;51.886;15.604;2023-08-06T22:03:10;99326.62;;;13.98;87.26
40794;BME280;26502;51.886;15.604;2023-08-06T22:08:17;99325.64;;;14.07;87.13
40794;BME280;26502;51.886;15.604;2023-08-06T22:13:23;99333.88;;;14.12;87.08
40794;BME280;26502;51.886;15.604;2023-08-06T22:18:29;99333.30;;;14.15;86.87
40794;BME280;26502;51.886;15.604;2023-08-06T22:23:35;99335.06;;;14.18;86.88
40794;BME280;26502;51.886;15.604;2023-08-06T22:28:41;99328.02;;;14.17;86.73
40794;BME280;26502;51.886;15.604;2023-08-06T22:33:47;99328.45;;;14.13;86.99
40794;BME280;26502;51.886;15.604;2023-08-06T22:38:53;99326.92;;;14.14;87.24
40794;BME280;26502;51.886;15.604;2023-08-06T22:43:59;99326.10;;;14.11;87.38
40794;BME280;26502;51.886;15.604;2023-08-06T22:49:05;99324.08;;;14.06;87.44
40794;BME280;26502;51.886;15.604;2023-08-06T22:54:11;99316.78;;;14.06;87.45
40794;BME280;26502;51.886;15.604;2023-08-06T22:59:16;99310.16;;;14.06;87.43
40794;BME280;26502;51.886;15.604;2023-08-06T23:04:22;99308.28;;;14.02;87.99
40794;BME280;26502;51.886;15.604;2023-08-06T23:09:28;99303.94;;;13.98;87.78
40794;BME280;26502;51.886;15.604;2023-08-06T23:14:34;99294.23;;;13.96;87.97
40794;BME280;26502;51.886;15.604;2023-08-06T23:19:40;99291.84;;;13.98;87.97
40794;BME280;26502;51.886;15.604;2023-08-06T23:24:46;99304.17;;;13.97;88.02
40794;BME280;26502;51.886;15.604;2023-08-06T23:29:52;99315.04;;;14.00;88.14
40794;BME280;26502;51.886;15.604;2023-08-06T23:34:58;99315.40;;;14.00;87.83
40794;BME280;26502;51.886;15.604;2023-08-06T23:40:06;99311.18;;;13.97;87.93
40794;BME280;26502;51.886;15.604;2023-08-06T23:45:12;99315.45;;;13.97;88.04
40794;BME280;26502;51.886;15.604;2023-08-06T23:50:18;99310.35;;;13.93;87.82
40794;BME280;26502;51.886;15.604;2023-08-06T23:55:24;99311.92;;;13.91;87.85
